Time;durP1;ratioP1;P1;durP2;ratioP2;P2;SDS_P1;SDS_P2;PMS_P1;PMS_P2;Temp;Humidity;BMP_temperature;BMP_pressure;BME280_temperature;BME280_humidity;BME280_pressure;Samples;Min_cycle;Max_cycle;Signal;HPM_P1;HPM_P2
2021/12/14 00:00:17;;;;;;;10.68;5.97;;;;;;;3.47;100.00;97946.28;4990079;28;20065;-87
2021/12/14 00:02:44;;;;;;;10.43;5.57;;;;;;;3.50;100.00;97962.06;5020829;28;20030;-87
2021/12/14 00:05:10;;;;;;;10.90;5.75;;;;;;;3.37;100.00;97950.06;4991704;28;20033;-87
2021/12/14 00:07:36;;;;;;;11.77;6.18;;;;;;;3.42;100.00;97950.81;4988139;28;20030;-87
2021/12/14 00:10:14;;;;;;;11.70;6.57;;;;;;;3.40;100.00;97960.56;4981904;28;20033;-87
2021/12/14 00:12:58;;;;;;;12.38;6.32;;;;;;;3.44;100.00;97964.88;4999076;28;20029;-86
2021/12/14 00:15:24;;;;;;;11.95;7.20;;;;;;;3.38;100.00;97950.94;4984667;28;20034;-86
2021/12/14 00:17:54;;;;;;;15.60;6.72;;;;;;;3.51;100.00;97963.78;4994342;28;20406;-87
2021/12/14 00:20:25;;;;;;;15.52;7.32;;;;;;;3.53;100.00;97966.41;4996347;28;20018;-87
2021/12/14 00:25:25;;;;;;;10.98;6.30;;;;;;;3.46;100.00;97970.97;5012799;28;20172;-87
2021/12/14 00:27:52;;;;;;;9.73;5.68;;;;;;;3.44;100.00;97970.16;5009319;28;20034;-86
2021/12/14 00:30:17;;;;;;;13.10;5.97;;;;;;;3.48;100.00;97974.44;4987842;28;20490;-86
2021/12/14 00:32:43;;;;;;;13.48;6.10;;;;;;;3.52;100.00;97980.50;4985994;28;20084;-87
2021/12/14 00:35:12;;;;;;;7.75;5.35;;;;;;;3.52;100.00;97981.38;5010325;28;20112;-88
2021/12/14 00:37:42;;;;;;;9.48;5.93;;;;;;;3.46;100.00;97981.56;5007801;28;20481;-88
2021/12/14 00:40:17;;;;;;;8.27;5.38;;;;;;;3.50;100.00;97977.06;4989503;28;20037;-87
2021/12/14 00:42:43;;;;;;;10.05;6.32;;;;;;;3.56;100.00;97987.47;4992409;28;20033;-87
2021/12/14 00:45:09;;;;;;;11.32;6.20;;;;;;;3.46;100.00;97968.34;5002956;28;20048;-86
2021/12/14 00:47:35;;;;;;;8.90;5.82;;;;;;;3.52;100.00;97986.69;4997329;28;20084;-86
2021/12/14 00:50:01;;;;;;;10.38;5.93;;;;;;;3.42;100.00;97987.81;4990345;28;20478;-87
2021/12/14 00:52:27;;;;;;;9.13;5.07;;;;;;;3.29;100.00;97983.78;4991130;28;20097;-87
2021/12/14 00:54:52;;;;;;;9.48;5.55;;;;;;;3.23;100.00;97992.72;4991636;28;20033;-86
2021/12/14 00:57:19;;;;;;;9.95;5.50;;;;;;;3.21;100.00;97981.31;4991043;28;20033;-87
2021/12/14 00:59:44;;;;;;;13.65;6.75;;;;;;;3.25;100.00;97995.34;5007671;28;20108;-87
2021/12/14 01:02:14;;;;;;;9.10;5.38;;;;;;;3.28;100.00;97997.91;4987638;28;20551;-87
2021/12/14 01:04:45;;;;;;;11.25;4.78;;;;;;;3.20;100.00;97995.44;4980897;28;20034;-86
2021/12/14 01:07:12;;;;;;;8.40;5.32;;;;;;;3.19;100.00;98001.66;4988621;28;20049;-86
2021/12/14 01:09:42;;;;;;;8.70;5.22;;;;;;;3.14;100.00;97992.09;4983450;28;20086;-87
2021/12/14 01:12:15;;;;;;;10.98;6.30;;;;;;;3.11;100.00;97989.53;4988862;28;20057;-87
2021/12/14 01:15:10;;;;;;;11.10;5.80;;;;;;;3.21;100.00;98002.47;4982203;28;20032;-87
2021/12/14 01:17:43;;;;;;;11.13;6.18;;;;;;;3.19;100.00;97998.13;4997528;28;20046;-85
2021/12/14 01:20:11;;;;;;;10.30;5.80;;;;;;;3.13;100.00;98003.59;4996727;28;20026;-86
2021/12/14 01:22:43;;;;;;;10.27;5.50;;;;;;;3.04;100.00;97998.53;5011787;28;20030;-86
2021/12/14 01:25:18;;;;;;;10.32;5.75;;;;;;;3.07;100.00;98009.03;4996409;28;20061;-85
2021/12/14 01:27:56;;;;;;;12.40;5.95;;;;;;;3.11;100.00;98010.66;4995323;28;20061;-85
2021/12/14 01:30:22;;;;;;;10.90;6.25;;;;;;;3.12;100.00;98020.34;5011560;28;20072;-85
2021/12/14 01:32:49;;;;;;;9.77;6.03;;;;;;;3.09;100.00;98009.84;5011759;28;20485;-86
2021/12/14 01:35:19;;;;;;;11.57;6.22;;;;;;;3.09;100.00;98023.06;5011681;28;20096;-86
2021/12/14 01:37:59;;;;;;;12.10;7.13;;;;;;;2.98;100.00;98004.84;5011994;28;20021;-87
2021/12/14 01:40:53;;;;;;;11.80;6.72;;;;;;;3.04;100.00;98014.38;5013007;28;20489;-86
2021/12/14 01:43:15;;;;;;;9.23;6.00;;;;;;;3.01;100.00;98011.81;5012492;28;20029;-86
2021/12/14 01:45:41;;;;;;;9.95;5.82;;;;;;;2.92;100.00;98017.31;5000846;28;20489;-86
2021/12/14 01:48:07;;;;;;;11.30;6.25;;;;;;;2.96;100.00;98016.31;5012334;28;20034;-86
2021/12/14 01:50:41;;;;;;;10.02;6.63;;;;;;;3.02;100.00;98018.81;5012550;28;20025;-87
2021/12/14 01:53:07;;;;;;;13.55;7.00;;;;;;;3.11;100.00;98011.53;4995319;28;20029;-86
2021/12/14 01:55:37;;;;;;;9.45;6.22;;;;;;;3.05;100.00;98003.75;5011732;28;20038;-86
2021/12/14 01:58:05;;;;;;;10.20;6.68;;;;;;;3.16;100.00;98009.66;5010931;28;20429;-87
2021/12/14 02:00:55;;;;;;;10.32;6.75;;;;;;;3.20;100.00;97999.84;5011232;28;20034;-87
2021/12/14 02:03:28;;;;;;;11.50;6.07;;;;;;;3.13;100.00;98009.75;5010776;28;20063;-87
2021/12/14 02:05:54;;;;;;;11.10;6.45;;;;;;;3.21;100.00;98014.81;5006474;28;20047;-87
2021/12/14 02:08:24;;;;;;;12.15;6.65;;;;;;;3.16;100.00;98003.50;5011257;28;20379;-87
2021/12/14 02:10:51;;;;;;;10.88;7.05;;;;;;;3.16;100.00;98003.50;5011667;28;20032;-88
2021/12/14 02:13:25;;;;;;;10.73;6.25;;;;;;;3.13;100.00;98011.50;5012247;28;20022;-88
2021/12/14 02:15:51;;;;;;;10.77;6.80;;;;;;;3.10;100.00;98008.94;4995296;28;20034;-87
2021/12/14 02:18:20;;;;;;;11.75;7.43;;;;;;;3.15;100.00;98013.19;4968933;28;1260000;-89
2021/12/14 02:20:52;;;;;;;11.13;6.53;;;;;;;3.18;100.00;98014.88;4996382;28;20042;-86
2021/12/14 02:23:20;;;;;;;11.20;7.03;;;;;;;3.21;100.00;98025.38;5028476;28;20405;-87
2021/12/14 02:25:46;;;;;;;12.52;7.05;;;;;;;3.15;100.00;98017.63;4996233;28;20121;-87
2021/12/14 02:28:15;;;;;;;11.98;7.25;;;;;;;3.07;100.00;98015.19;5011562;28;20033;-88
2021/12/14 02:30:42;;;;;;;11.57;7.05;;;;;;;3.04;100.00;98009.09;5011646;28;20501;-86
2021/12/14 02:33:16;;;;;;;14.57;7.70;;;;;;;3.08;100.00;98001.03;5011655;28;20036;-86
2021/12/14 02:35:41;;;;;;;12.63;8.00;;;;;;;3.05;100.00;98006.41;4995195;28;20037;-86
2021/12/14 02:38:11;;;;;;;16.13;8.07;;;;;;;3.12;100.00;98017.69;5011656;28;20038;-86
2021/12/14 02:41:01;;;;;;;27.35;12.25;;;;;;;3.12;100.00;98012.41;4995544;28;20124;-87
2021/12/14 02:43:40;;;;;;;25.60;11.07;;;;;;;3.14;100.00;98016.75;4997130;28;20489;-86
2021/12/14 02:46:25;;;;;;;21.80;11.93;;;;;;;3.20;100.00;98015.72;4994244;28;20054;-85
2021/12/14 02:48:55;;;;;;;18.55;10.05;;;;;;;3.16;100.00;98014.06;4995193;28;20092;-86
2021/12/14 02:51:24;;;;;;;17.13;9.77;;;;;;;3.20;100.00;98019.22;4987567;28;20026;-86
2021/12/14 02:53:54;;;;;;;21.40;10.65;;;;;;;3.22;100.00;98025.38;4995669;28;20069;-86
2021/12/14 02:56:22;;;;;;;18.38;9.93;;;;;;;3.09;100.00;98013.34;4988449;28;20030;-87
2021/12/14 02:58:50;;;;;;;18.55;9.60;;;;;;;3.18;100.00;98022.81;4994894;28;20500;-87
2021/12/14 03:01:17;;;;;;;17.63;10.32;;;;;;;3.16;100.00;98022.88;4995068;28;20425;-87
2021/12/14 03:03:44;;;;;;;20.30;11.50;;;;;;;3.11;100.00;98024.75;4996041;28;20026;-87
2021/12/14 03:06:12;;;;;;;21.98;12.15;;;;;;;3.18;100.00;98025.47;4995124;28;20095;-86
2021/12/14 03:08:45;;;;;;;22.13;12.05;;;;;;;3.13;100.00;98015.03;4995922;28;20030;-86
2021/12/14 03:11:13;;;;;;;22.27;10.65;;;;;;;3.16;100.00;98025.53;4995466;28;20036;-87
2021/12/14 03:13:46;;;;;;;16.02;9.30;;;;;;;3.21;100.00;98031.53;4995236;28;20041;-87
2021/12/14 03:16:19;;;;;;;;;;;;;;;3.21;100.00;98036.84;4997309;28;20553;-85
2021/12/14 03:18:49;;;;;;;16.35;8.57;;;;;;;3.07;100.00;98027.53;4990415;28;19913;-86
2021/12/14 03:21:19;;;;;;;15.02;8.25;;;;;;;2.99;100.00;98014.47;5004008;28;20402;-87
2021/12/14 03:23:51;;;;;;;13.15;8.20;;;;;;;3.18;100.00;98036.03;5002484;28;20440;-86
2021/12/14 03:26:17;;;;;;;;;;;;;;;3.20;100.00;98031.56;5002046;28;20056;-86
2021/12/14 03:28:45;;;;;;;15.98;8.38;;;;;;;3.17;100.00;98032.53;4987714;28;19958;-87
2021/12/14 03:31:11;;;;;;;16.27;9.40;;;;;;;3.11;100.00;98035.31;4998308;28;20103;-86
2021/12/14 03:33:43;;;;;;;12.45;7.72;;;;;;;3.12;100.00;98034.41;4997863;28;20080;-87
2021/12/14 03:36:11;;;;;;;13.02;8.07;;;;;;;2.96;100.00;98022.47;5007173;28;20387;-87
2021/12/14 03:38:44;;;;;;;14.60;8.15;;;;;;;2.98;100.00;98025.97;4993879;28;20032;-86
2021/12/14 03:41:20;;;;;;;15.75;8.65;;;;;;;2.96;100.00;98026.91;5000972;28;20579;-87
2021/12/14 03:44:03;;;;;;;12.98;7.80;;;;;;;3.04;100.00;98040.81;5001634;28;20037;-87
2021/12/14 03:46:30;;;;;;;;;;;;;;;2.97;100.00;98039.22;5019242;28;20523;-87
2021/12/14 03:48:57;;;;;;;13.60;7.35;;;;;;;2.87;100.00;98037.69;4993882;28;20051;-87
2021/12/14 03:51:23;;;;;;;13.35;8.07;;;;;;;2.87;100.00;98037.69;4993619;28;20033;-86
2021/12/14 03:53:54;;;;;;;17.73;8.40;;;;;;;2.86;100.00;98042.09;5001342;28;20544;-88
2021/12/14 03:56:20;;;;;;;17.00;9.10;;;;;;;2.96;100.00;98043.63;5009674;28;20040;-87
2021/12/14 03:58:47;;;;;;;15.77;9.10;;;;;;;2.97;100.00;98040.09;4993413;28;20524;-86
2021/12/14 04:01:25;;;;;;;15.65;9.45;;;;;;;3.04;100.00;98035.53;4992441;28;20017;-86
2021/12/14 04:03:53;;;;;;;16.65;9.18;;;;;;;2.97;100.00;98034.78;4981904;28;20037;-86
2021/12/14 04:06:19;;;;;;;19.98;9.82;;;;;;;3.01;100.00;98046.16;4983350;28;20022;-87
2021/12/14 04:08:45;;;;;;;25.15;10.85;;;;;;;3.06;100.00;98049.56;5004402;28;20036;-87
2021/12/14 04:11:13;;;;;;;21.77;10.85;;;;;;;3.12;100.00;98050.28;4997306;28;20079;-86
2021/12/14 04:13:43;;;;;;;21.65;9.68;;;;;;;3.04;100.00;98054.03;4989108;28;20026;-87
2021/12/14 04:16:11;;;;;;;23.80;10.50;;;;;;;3.07;100.00;98059.22;4981076;28;20025;-86
2021/12/14 04:18:38;;;;;;;17.38;8.43;;;;;;;3.05;100.00;98056.59;4990494;28;20034;-86
2021/12/14 04:21:04;;;;;;;14.82;8.90;;;;;;;3.03;100.00;98047.84;4989013;28;20037;-87
2021/12/14 04:23:35;;;;;;;14.77;8.18;;;;;;;3.00;100.00;98053.22;4995390;28;20084;-87
2021/12/14 04:26:03;;;;;;;13.88;8.65;;;;;;;2.97;100.00;98055.94;4990293;28;20509;-86
2021/12/14 04:28:37;;;;;;;13.43;8.20;;;;;;;3.00;100.00;98049.69;4994919;28;20107;-87
2021/12/14 04:31:03;;;;;;;15.55;8.45;;;;;;;2.91;100.00;98044.63;4992918;28;20101;-86
2021/12/14 04:33:31;;;;;;;17.05;9.23;;;;;;;2.92;100.00;98041.97;4990843;28;20038;-86
2021/12/14 04:35:57;;;;;;;16.58;9.38;;;;;;;3.02;100.00;98053.16;4985547;28;20041;-86
2021/12/14 04:38:32;;;;;;;13.93;8.57;;;;;;;3.04;100.00;98048.72;4993642;28;20026;-87
2021/12/14 04:52:13;;;;;;;13.95;8.00;;;;;;;2.95;100.00;98060.41;5011710;28;20079;-87
2021/12/14 04:54:42;;;;;;;14.95;8.65;;;;;;;2.84;100.00;98054.47;4992745;28;20417;-87
2021/12/14 04:57:21;;;;;;;17.23;9.10;;;;;;;2.98;100.00;98062.09;4997533;28;20026;-87
2021/12/14 04:59:48;;;;;;;16.50;9.00;;;;;;;3.05;100.00;98068.94;4992324;28;20065;-88
2021/12/14 05:02:18;;;;;;;11.60;7.47;;;;;;;2.88;100.00;98058.78;4991156;28;20073;-88
2021/12/14 05:04:45;;;;;;;11.48;6.75;;;;;;;2.89;100.00;98060.50;4987831;28;20393;-87
2021/12/14 05:10:18;;;;;;;12.88;8.10;;;;;;;2.91;100.00;98064.00;4973600;28;20037;-87
2021/12/14 05:12:44;;;;;;;14.45;7.55;;;;;;;2.86;100.00;98068.50;4977248;28;20041;-88
2021/12/14 05:15:12;;;;;;;16.30;8.23;;;;;;;2.90;100.00;98077.22;4993500;28;20025;-88
2021/12/14 05:17:40;;;;;;;15.30;8.88;;;;;;;2.94;100.00;98076.28;5006225;28;20517;-87
2021/12/14 05:20:10;;;;;;;17.17;8.65;;;;;;;2.69;100.00;98049.56;5007217;28;20022;-86
2021/12/14 05:22:41;;;;;;;17.85;9.35;;;;;;;2.82;100.00;98076.56;4993024;28;20092;-87
2021/12/14 05:25:13;;;;;;;14.85;9.38;;;;;;;2.63;100.00;98053.19;4995908;28;20563;-88
2021/12/14 05:27:44;;;;;;;17.45;9.90;;;;;;;2.61;100.00;98072.63;5028008;28;20116;-87
2021/12/14 05:30:14;;;;;;;20.58;10.98;;;;;;;2.55;100.00;98065.69;5004050;28;20061;-90
2021/12/14 05:32:43;;;;;;;21.30;10.75;;;;;;;2.59;100.00;98070.00;5004412;28;20378;-86
2021/12/14 05:35:17;;;;;;;16.48;9.73;;;;;;;2.63;100.00;98074.31;4991054;28;20026;-87
2021/12/14 05:37:48;;;;;;;19.13;10.57;;;;;;;2.68;100.00;98077.72;4972097;28;20030;-86
2021/12/14 05:40:24;;;;;;;17.30;9.80;;;;;;;2.58;100.00;98065.66;4988847;28;20493;-85
2021/12/14 05:43:08;;;;;;;14.55;9.38;;;;;;;2.51;100.00;98053.47;4990891;28;20022;-86
2021/12/14 05:45:39;;;;;;;17.77;10.40;;;;;;;2.59;100.00;98053.28;4988884;28;20045;-87
2021/12/14 05:48:06;;;;;;;33.83;21.38;;;;;;;2.76;100.00;98089.91;4988336;28;20026;-88
2021/12/14 05:50:34;;;;;;;16.65;10.90;;;;;;;2.69;100.00;98074.19;4989936;28;20030;-87
2021/12/14 05:53:01;;;;;;;13.30;8.73;;;;;;;2.68;100.00;98077.72;5012268;28;20099;-86
2021/12/14 05:55:32;;;;;;;19.73;11.35;;;;;;;2.49;100.00;98059.69;4996162;28;20417;-87
2021/12/14 05:57:58;;;;;;;19.42;11.88;;;;;;;2.31;100.00;98041.63;4996823;28;20026;-87
2021/12/14 06:00:26;;;;;;;17.38;10.02;;;;;;;2.54;100.00;98085.09;4995363;28;20033;-86
2021/12/14 06:02:52;;;;;;;17.00;10.27;;;;;;;2.47;100.00;98067.63;4988123;28;20025;-87
2021/12/14 06:05:20;;;;;;;17.25;10.23;;;;;;;2.50;100.00;98061.41;4983676;28;20056;-86
2021/12/14 06:07:45;;;;;;;19.65;11.27;;;;;;;2.52;100.00;98084.22;4996655;28;20022;-88
2021/12/14 06:10:12;;;;;;;20.23;12.25;;;;;;;2.81;100.00;98111.78;4993857;28;20468;-88
2021/12/14 06:12:41;;;;;;;23.92;13.27;;;;;;;2.59;100.00;98080.56;4979013;28;20030;-88
2021/12/14 06:15:16;;;;;;;23.55;14.02;;;;;;;2.47;100.00;98067.63;4988054;28;20041;-87
2021/12/14 06:17:42;;;;;;;29.75;14.98;;;;;;;2.52;100.00;98084.22;4992778;28;20425;-86
2021/12/14 06:20:13;;;;;;;37.17;20.95;;;;;;;2.81;100.00;98111.78;4995005;28;20042;-87
2021/12/14 06:22:41;;;;;;;56.15;27.75;;;;;;;2.68;100.00;98105.91;4995708;28;20049;-88
2021/12/14 06:25:15;;;;;;;68.15;35.13;;;;;;;2.58;100.00;98078.84;4996039;28;20113;-87
2021/12/14 06:27:41;;;;;;;78.25;38.05;;;;;;;2.83;100.00;98107.34;4995628;28;20088;-88
2021/12/14 06:30:15;;;;;;;119.85;52.00;;;;;;;2.78;100.00;98102.16;5011871;28;20033;-88
2021/12/14 06:32:44;;;;;;;126.50;54.33;;;;;;;2.72;100.00;98102.28;5013161;28;20477;-87
2021/12/14 06:35:18;;;;;;;95.78;44.67;;;;;;;2.72;100.00;98097.00;4998501;28;20033;-88
2021/12/14 06:40:57;;;;;;;87.70;38.70;;;;;;;2.81;100.00;98111.78;5013785;28;20041;-88
2021/12/14 06:43:47;;;;;;;123.35;60.40;;;;;;;2.88;100.00;98135.41;5016029;28;20070;-87
2021/12/14 06:46:16;;;;;;;59.17;26.52;;;;;;;2.65;100.00;98111.25;4979539;28;20112;-87
2021/12/14 06:48:47;;;;;;;50.45;24.13;;;;;;;2.85;100.00;98142.53;4993351;28;20038;-86
2021/12/14 06:51:27;;;;;;;;;;;;;;;;;;;;;
2021/12/14 06:54:12;;;;;;;30.05;16.33;;;;;;;2.73;100.00;98117.25;5011639;28;20039;-89
2021/12/14 06:56:39;;;;;;;30.38;14.68;;;;;;;2.76;100.00;98127.75;5012007;28;20030;-88
2021/12/14 06:59:08;;;;;;;30.48;15.52;;;;;;;2.95;100.00;98146.72;4997249;28;20088;-87
2021/12/14 07:01:37;;;;;;;28.60;15.88;;;;;;;2.76;100.00;98124.22;5015702;28;20037;-88
2021/12/14 07:04:06;;;;;;;26.45;15.05;;;;;;;2.53;100.00;98093.03;4999560;28;20489;-87
2021/12/14 07:06:38;;;;;;;28.70;15.13;;;;;;;2.62;100.00;98106.91;5001006;28;20046;-88
2021/12/14 07:09:09;;;;;;;29.17;16.42;;;;;;;2.35;100.00;98065.25;4992147;28;20025;-88
2021/12/14 07:11:35;;;;;;;36.00;17.52;;;;;;;2.58;100.00;98105.25;5017188;28;20477;-87
2021/12/14 07:14:12;;;;;;;29.20;17.50;;;;;;;2.61;100.00;98112.25;4999585;28;20037;-87
2021/12/14 07:16:39;;;;;;;33.45;19.83;;;;;;;2.44;100.00;98112.59;5002013;28;20053;-87
2021/12/14 07:19:06;;;;;;;47.92;24.42;;;;;;;2.45;100.00;98127.53;4990289;28;20025;-87
2021/12/14 07:21:47;;;;;;;43.90;25.63;;;;;;;2.52;100.00;98128.28;4997963;28;20025;-89
2021/12/14 07:24:32;;;;;;;;;;;;;;;;;;;;;
2021/12/14 07:27:24;;;;;;;85.78;44.95;;;;;;;2.72;100.00;98170.97;5016414;28;20048;-89
2021/12/14 07:29:56;;;;;;;27.10;14.35;;;;;;;2.46;100.00;98115.19;4986907;28;20431;-89
2021/12/14 07:32:52;;;;;;;39.75;21.45;;;;;;;2.74;100.00;98172.66;4986014;28;20572;-88
2021/12/14 07:35:27;;;;;;;32.50;17.55;;;;;;;2.80;100.00;98176.09;4980965;28;20028;-87
2021/12/14 07:38:21;;;;;;;36.45;21.55;;;;;;;2.86;100.00;98175.97;5013797;28;20060;-87
2021/12/14 07:40:52;;;;;;;55.03;27.65;;;;;;;2.82;100.00;98176.94;4997183;28;20046;-88
2021/12/14 07:43:25;;;;;;;51.17;25.40;;;;;;;2.87;100.00;98172.41;4986853;28;20079;-90
2021/12/14 07:45:52;;;;;;;46.20;23.02;;;;;;;2.88;100.00;98182.06;4984465;28;20053;-89
2021/12/14 07:48:25;;;;;;;48.70;25.30;;;;;;;2.72;100.00;98158.63;4984874;28;20053;-89
2021/12/14 07:50:54;;;;;;;50.40;26.70;;;;;;;2.54;100.00;98142.31;4983660;28;20029;-89
2021/12/14 07:53:47;;;;;;;89.93;46.83;;;;;;;2.77;100.00;98158.53;4983903;28;20560;-88
2021/12/14 07:56:33;;;;;;;50.33;27.50;;;;;;;2.93;100.00;98180.19;4983995;28;20030;-87
2021/12/14 07:59:00;;;;;;;37.28;16.50;;;;;;;2.79;100.00;98192.84;4986863;28;20093;-89
2021/12/14 08:01:27;;;;;;;28.20;15.15;;;;;;;2.70;100.00;98178.94;4983827;28;20042;-88
2021/12/14 08:04:05;;;;;;;30.48;16.52;;;;;;;2.59;100.00;98159.78;4983982;28;20030;-88
2021/12/14 08:06:57;;;;;;;25.70;14.68;;;;;;;2.52;100.00;98170.50;4983432;28;20026;-88
2021/12/14 08:10:06;;;;;;;28.33;16.30;;;;;;;2.74;100.00;98207.00;4985513;28;20040;-91
2021/12/14 08:16:23;;;;;;;33.50;19.00;;;;;;;2.67;100.00;98183.41;5030296;28;20041;-91
2021/12/14 08:19:50;;;;;;;35.38;19.58;;;;;;;2.92;100.00;98210.19;4994829;28;20043;-89
2021/12/14 08:22:28;;;;;;;39.47;21.90;;;;;;;2.67;100.00;98183.41;4967688;28;20596;-88
2021/12/14 08:35:08;;;;;;;38.88;22.73;;;;;;;2.92;100.00;98186.41;4975732;28;20096;-89
2021/12/14 08:37:44;;;;;;;41.80;22.45;;;;;;;2.61;100.00;98147.44;4981067;28;20483;-89
2021/12/14 08:40:17;;;;;;;36.42;19.95;;;;;;;2.85;100.00;98161.00;4962138;28;20022;-88
2021/12/14 08:43:23;;;;;;;37.97;21.02;;;;;;;2.98;100.00;98204.75;4972701;28;20022;-85
2021/12/14 08:45:47;;;;;;;44.00;23.75;;;;;;;3.11;100.00;98188.59;4987344;28;20066;-92
2021/12/14 08:48:23;;;;;;;54.65;28.52;;;;;;;3.20;100.00;98196.31;4984853;28;20026;-89
2021/12/14 08:50:56;;;;;;;49.38;27.25;;;;;;;3.05;100.00;98174.63;4972458;28;20421;-87
2021/12/14 08:53:24;;;;;;;42.20;22.77;;;;;;;3.23;100.00;98208.63;4986530;28;20105;-86
2021/12/14 08:55:53;;;;;;;33.80;20.13;;;;;;;3.22;100.00;98202.44;4959146;28;20045;-85
2021/12/14 08:58:19;;;;;;;41.95;20.45;;;;;;;3.25;100.00;98193.59;4965878;28;20118;-90
2021/12/14 09:00:54;;;;;;;33.95;17.13;;;;;;;3.28;100.00;98204.09;4972449;28;20061;-87
2021/12/14 09:03:34;;;;;;;39.30;19.17;;;;;;;2.96;100.00;98164.28;4960963;28;20030;-78
2021/12/14 09:06:08;;;;;;;37.70;19.17;;;;;;;2.93;100.00;98157.28;4971713;28;20030;-90
2021/12/14 09:08:34;;;;;;;56.40;30.50;;;;;;;2.78;100.00;98131.22;4997987;28;20030;-90
2021/12/14 09:11:01;;;;;;;101.28;51.20;;;;;;;3.25;100.00;98193.59;4994785;28;20177;-87
2021/12/14 09:13:28;;;;;;;121.43;55.03;;;;;;;3.17;100.00;98179.66;4971224;28;20065;-89
2021/12/14 09:16:10;;;;;;;136.15;56.70;;;;;;;3.26;100.00;98187.41;4965385;28;20023;-91
2021/12/14 09:18:41;;;;;;;114.37;51.47;;;;;;;3.06;100.00;98155.25;4986267;28;20559;-92
2021/12/14 09:21:12;;;;;;;104.68;52.17;;;;;;;3.37;100.00;98188.00;5000024;28;20324;-87
2021/12/14 09:23:42;;;;;;;108.50;55.40;;;;;;;3.45;100.00;98190.47;5002323;28;20037;-87
2021/12/14 09:26:16;;;;;;;102.78;53.88;;;;;;;3.53;100.00;98185.88;4994745;28;20037;-87
2021/12/14 09:28:42;;;;;;;74.70;39.45;;;;;;;3.40;100.00;98182.66;5012340;28;20040;-84
2021/12/14 09:31:09;;;;;;;69.05;37.40;;;;;;;3.43;100.00;98189.63;4992633;28;20029;-87
2021/12/14 09:33:38;;;;;;;65.82;36.67;;;;;;;3.13;100.00;98133.06;4995508;28;20038;-88
2021/12/14 09:36:11;;;;;;;67.38;38.53;;;;;;;3.40;100.00;98177.38;4995604;28;20038;-87
2021/12/14 09:38:40;;;;;;;69.68;37.58;;;;;;;3.29;100.00;98156.44;4995830;28;20118;-86
2021/12/14 09:41:10;;;;;;;87.63;46.30;;;;;;;2.98;100.00;98105.25;4993962;28;20026;-87
2021/12/14 09:43:38;;;;;;;75.72;38.72;;;;;;;3.20;100.00;98155.78;4995906;28;20033;-87
2021/12/14 09:46:05;;;;;;;80.15;41.30;;;;;;;3.19;100.00;98133.81;4995665;28;20087;-87
2021/12/14 09:48:35;;;;;;;73.50;39.33;;;;;;;3.42;100.00;98158.81;4995313;28;20030;-86
2021/12/14 09:51:07;;;;;;;61.30;33.08;;;;;;;3.42;100.00;98137.66;4993604;28;20055;-85
2021/12/14 09:53:37;;;;;;;65.65;33.85;;;;;;;3.31;100.00;98132.63;4990237;28;20040;-86
2021/12/14 09:56:04;;;;;;;59.53;31.58;;;;;;;3.14;100.00;98134.78;4994776;28;20029;-87
2021/12/14 09:58:35;;;;;;;72.35;36.30;;;;;;;3.44;100.00;98173.75;4993790;28;20053;-87
2021/12/14 10:01:09;;;;;;;62.67;33.60;;;;;;;3.53;100.00;98164.72;4993366;28;20181;-87
2021/12/14 10:03:35;;;;;;;297.92;151.52;;;;;;;3.49;100.00;98166.56;4993198;28;20037;-87
2021/12/14 10:06:06;;;;;;;71.57;38.17;;;;;;;3.49;100.00;98148.06;4993357;28;20401;-85
2021/12/14 10:08:39;;;;;;;65.38;35.78;;;;;;;3.59;100.00;98151.34;5008903;28;20447;-86
2021/12/14 10:11:12;;;;;;;64.93;35.10;;;;;;;3.47;100.00;98133.13;4994033;28;20084;-86
2021/12/14 10:13:54;;;;;;;81.70;43.33;;;;;;;3.31;100.00;98119.41;4988446;28;20033;-86
2021/12/14 10:16:23;;;;;;;66.38;34.35;;;;;;;3.39;100.00;98124.50;5011656;28;20018;-86
2021/12/14 10:18:59;;;;;;;135.15;63.60;;;;;;;3.07;100.00;98133.22;4993228;28;20074;-86
2021/12/14 10:21:34;;;;;;;96.63;45.13;;;;;;;3.11;100.00;98143.66;4992955;28;20523;-83
2021/12/14 10:24:04;;;;;;;92.70;46.15;;;;;;;3.28;100.00;98140.66;5008749;28;20124;-89
2021/12/14 10:26:34;;;;;;;132.38;63.70;;;;;;;3.34;100.00;98145.78;4991981;28;20123;-82
2021/12/14 10:29:00;;;;;;;80.13;40.35;;;;;;;3.48;100.00;98143.66;4991946;28;20030;-81
2021/12/14 10:31:44;;;;;;;80.78;40.20;;;;;;;3.63;100.00;98153.88;5010839;28;20497;-81
2021/12/14 10:34:17;;;;;;;76.43;39.40;;;;;;;3.64;100.00;98139.75;4995897;28;20528;-79
2021/12/14 10:36:46;;;;;;;88.30;49.45;;;;;;;3.62;100.00;98131.00;5005367;28;20066;-79
2021/12/14 10:44:32;;;;;;;59.22;32.35;;;;;;;3.75;100.00;98134.19;5012457;28;20040;-79
2021/12/14 10:46:59;;;;;;;64.35;34.85;;;;;;;3.75;100.00;98145.63;5011803;28;20030;-80
2021/12/14 10:49:27;;;;;;;48.92;27.48;;;;;;;3.94;100.00;98153.13;4981668;28;20053;-79
2021/12/14 10:51:57;;;;;;;51.75;27.88;;;;;;;3.84;100.00;98132.16;5020056;28;20485;-91
2021/12/14 10:54:24;;;;;;;56.55;30.17;;;;;;;4.02;100.00;98152.00;5003476;28;20034;-79
2021/12/14 10:56:56;;;;;;;63.40;32.47;;;;;;;3.92;100.00;98139.03;4996641;28;20026;-78
2021/12/14 10:59:26;;;;;;;48.75;27.20;;;;;;;4.01;100.00;98150.25;5013877;28;20173;-80
2021/12/14 11:01:53;;;;;;;53.25;27.38;;;;;;;4.03;100.00;98142.28;5004691;28;20026;-80
2021/12/14 11:04:37;;;;;;;55.33;29.02;;;;;;;4.02;100.00;98145.84;4994514;28;20041;-79
2021/12/14 11:07:06;;;;;;;52.90;29.00;;;;;;;4.00;100.00;98135.28;5007319;28;20117;-83
2021/12/14 11:12:06;;;;;;;57.58;30.58;;;;;;;4.05;100.00;98135.16;5010940;28;20022;-84
2021/12/14 11:14:34;;;;;;;61.88;31.08;;;;;;;4.21;100.00;98126.78;4995133;28;20065;-84
2021/12/14 11:19:53;;;;;;;60.28;28.58;;;;;;;3.74;100.00;98130.69;5012133;28;20164;-83
2021/12/14 11:22:56;;;;;;;59.05;30.80;;;;;;;3.94;100.00;98137.25;5012445;28;20029;-81
2021/12/14 11:25:25;;;;;;;57.80;32.15;;;;;;;4.00;100.00;98132.63;4986311;28;20045;-80
2021/12/14 11:28:08;;;;;;;61.80;33.03;;;;;;;3.99;100.00;98136.19;5011759;28;20088;-81
2021/12/14 11:30:38;;;;;;;65.18;34.95;;;;;;;4.04;100.00;98133.41;5011798;28;20036;-80
2021/12/14 11:33:20;;;;;;;68.38;38.50;;;;;;;4.19;100.00;98138.28;4995873;28;20038;-81
2021/12/14 11:36:00;;;;;;;64.22;34.58;;;;;;;4.13;100.00;98139.34;4995417;28;20059;-81
2021/12/14 11:38:58;;;;;;;55.90;30.92;;;;;;;3.99;100.00;98127.38;5011563;28;20034;-83
2021/12/14 11:41:42;;;;;;;58.75;31.23;;;;;;;3.86;100.00;98133.91;4990742;28;20038;-83
2021/12/14 11:44:19;;;;;;;56.17;29.75;;;;;;;3.95;100.00;98138.94;4993978;28;20091;-82
2021/12/14 11:46:51;;;;;;;48.42;25.85;;;;;;;3.76;100.00;98123.56;5010948;28;20025;-80
2021/12/14 11:49:17;;;;;;;51.70;27.98;;;;;;;3.87;100.00;98125.94;5002178;28;20026;-81
2021/12/14 11:51:44;;;;;;;57.22;30.55;;;;;;;3.93;100.00;98112.53;4994966;28;20053;-82
2021/12/14 11:54:10;;;;;;;56.20;29.58;;;;;;;4.04;100.00;98123.69;4995759;28;20040;-81
2021/12/14 11:56:36;;;;;;;58.90;30.85;;;;;;;4.11;100.00;98137.66;4995972;28;20517;-83
2021/12/14 11:59:05;;;;;;;55.25;29.98;;;;;;;4.10;100.00;98117.38;5010743;28;20036;-81
2021/12/14 12:01:47;;;;;;;39.28;22.75;;;;;;;4.00;100.00;98131.78;4994511;28;20086;-83
2021/12/14 12:04:35;;;;;;;43.35;21.17;;;;;;;3.89;100.00;98129.41;5010799;28;20405;-85
2021/12/14 12:09:43;;;;;;;31.55;18.42;;;;;;;3.78;100.00;98116.44;5016150;28;20088;-88
2021/12/14 12:12:14;;;;;;;33.58;18.15;;;;;;;3.96;100.00;98130.13;5016419;28;20117;-90
2021/12/14 12:15:08;;;;;;;32.05;19.13;;;;;;;3.93;100.00;98131.06;5003678;28;20030;-91
2021/12/14 12:17:42;;;;;;;51.70;27.05;;;;;;;3.86;100.00;98124.19;5013800;28;20484;-85
2021/12/14 12:20:31;;;;;;;51.08;25.15;;;;;;;3.89;100.00;98123.22;4992020;28;20587;-85
2021/12/14 12:23:04;;;;;;;48.22;25.65;;;;;;;3.86;100.00;98118.91;4994354;28;20112;-85
2021/12/14 12:25:32;;;;;;;52.05;29.05;;;;;;;3.94;100.00;98110.78;5010414;28;20505;-84
2021/12/14 12:45:36;;;;;;;52.90;29.80;;;;;;;4.63;100.00;98114.09;5146073;27;20388;-81
2021/12/14 12:48:02;;;;;;;52.67;29.83;;;;;;;4.27;100.00;98094.84;5113605;28;20506;-81
2021/12/14 12:50:29;;;;;;;59.03;31.05;;;;;;;4.08;100.00;98108.59;5126329;27;20068;-82